Time;durP1;ratioP1;P1;durP2;ratioP2;P2;SDS_P1;SDS_P2;PMS_P1;PMS_P2;Temp;Humidity;BMP_temperature;BMP_pressure;BME280_temperature;BME280_humidity;BME280_pressure;Samples;Min_cycle;Max_cycle;Signal;HPM_P1;HPM_P2
2021/01/20 00:00:23;;;;;;;0.60;0.60;;;;;;;;;;5033553;28;20851;-63
2021/01/20 00:02:49;;;;;;;2.05;1.33;;;;;;;;;;5033482;28;20444;-63
2021/01/20 00:05:15;;;;;;;0.70;0.70;;;;;;;;;;5033652;28;20232;-63
2021/01/20 00:07:41;;;;;;;0.70;0.70;;;;;;;;;;5033536;28;20405;-64
2021/01/20 00:10:08;;;;;;;0.80;0.80;;;;;;;;;;5033325;28;20165;-63
2021/01/20 00:12:34;;;;;;;1.15;1.15;;;;;;;;;;5033705;28;20675;-63
2021/01/20 00:15:00;;;;;;;0.85;0.85;;;;;;;;;;5033316;28;20241;-64
2021/01/20 00:17:26;;;;;;;0.50;0.50;;;;;;;;;;5033386;28;20209;-64
2021/01/20 00:19:52;;;;;;;0.68;0.68;;;;;;;;;;5033297;28;20693;-63
2021/01/20 00:22:18;;;;;;;0.60;0.60;;;;;;;;;;5033282;28;20171;-64
2021/01/20 00:24:44;;;;;;;0.90;0.90;;;;;;;;;;5033298;28;20427;-64
2021/01/20 00:27:10;;;;;;;0.60;0.60;;;;;;;;;;5033058;28;20459;-64
2021/01/20 00:29:36;;;;;;;0.70;0.70;;;;;;;;;;5032992;28;20166;-64
2021/01/20 00:32:02;;;;;;;0.70;0.70;;;;;;;;;;5033098;28;20208;-64
2021/01/20 00:34:28;;;;;;;0.65;0.65;;;;;;;;;;5032997;28;20267;-64
2021/01/20 00:36:54;;;;;;;0.75;0.75;;;;;;;;;;5033022;28;20201;-64
2021/01/20 00:39:20;;;;;;;0.60;0.60;;;;;;;;;;5032823;28;20204;-64
2021/01/20 00:41:46;;;;;;;0.60;0.60;;;;;;;;;;5032854;28;20201;-64
2021/01/20 00:44:13;;;;;;;0.50;0.50;;;;;;;;;;5032769;28;20202;-63
2021/01/20 00:46:40;;;;;;;0.50;0.50;;;;;;;;;;5032823;28;20163;-63
2021/01/20 00:49:06;;;;;;;2.55;1.45;;;;;;;;;;5032454;28;20161;-64
2021/01/20 00:51:32;;;;;;;0.70;0.70;;;;;;;;;;5032739;28;20182;-63
2021/01/20 00:53:58;;;;;;;0.50;0.50;;;;;;;;;;5032453;28;20224;-63
2021/01/20 00:56:24;;;;;;;1.10;1.10;;;;;;;;;;5031689;28;20236;-63
2021/01/20 00:58:50;;;;;;;0.50;0.50;;;;;;;;;;5032630;28;20249;-64
2021/01/20 01:01:16;;;;;;;0.50;0.50;;;;;;;;;;5032533;28;20407;-64
2021/01/20 01:03:42;;;;;;;0.50;0.50;;;;;;;;;;5031674;28;20198;-63
2021/01/20 01:06:08;;;;;;;0.60;0.60;;;;;;;;;;5032475;28;20545;-63
2021/01/20 01:08:34;;;;;;;1.10;1.10;;;;;;;;;;5032184;28;20524;-63
2021/01/20 01:11:03;;;;;;;0.90;0.90;;;;;;;;;;5030937;28;20308;-63
2021/01/20 01:13:29;;;;;;;0.50;0.50;;;;;;;;;;5032466;28;20195;-63
2021/01/20 01:15:55;;;;;;;0.40;0.40;;;;;;;;;;5032216;28;20221;-63
2021/01/20 01:18:21;;;;;;;0.70;0.70;;;;;;;;;;5032297;28;20169;-63
2021/01/20 01:20:47;;;;;;;0.50;0.50;;;;;;;;;;5032023;28;20181;-63
2021/01/20 01:23:13;;;;;;;0.60;0.60;;;;;;;;;;5032022;28;20817;-63
2021/01/20 01:25:39;;;;;;;0.60;0.60;;;;;;;;;;5032182;28;20177;-63
2021/01/20 01:28:12;;;;;;;0.70;0.70;;;;;;;;;;5032091;28;20412;-63
2021/01/20 01:30:38;;;;;;;0.75;0.75;;;;;;;;;;5031855;28;20415;-63
2021/01/20 01:33:04;;;;;;;0.60;0.60;;;;;;;;;;5031946;28;20192;-63
2021/01/20 01:35:30;;;;;;;0.70;0.70;;;;;;;;;;5031842;28;20715;-63
2021/01/20 01:37:56;;;;;;;1.17;1.17;;;;;;;;;;5031862;28;20174;-64
2021/01/20 01:40:22;;;;;;;0.90;0.90;;;;;;;;;;5031913;28;20170;-64
2021/01/20 01:42:48;;;;;;;0.50;0.50;;;;;;;;;;5031815;28;20167;-63
2021/01/20 01:45:14;;;;;;;0.50;0.50;;;;;;;;;;5031857;28;20415;-63
2021/01/20 01:47:40;;;;;;;0.60;0.60;;;;;;;;;;5031745;28;20412;-63
2021/01/20 01:50:08;;;;;;;0.50;0.50;;;;;;;;;;5031617;28;20173;-63
2021/01/20 01:52:35;;;;;;;0.50;0.50;;;;;;;;;;5031674;28;20417;-64
2021/01/20 01:55:01;;;;;;;0.50;0.50;;;;;;;;;;5031503;28;20619;-63
2021/01/20 01:57:27;;;;;;;1.05;0.95;;;;;;;;;;5031703;28;20590;-63
2021/01/20 01:59:53;;;;;;;0.60;0.60;;;;;;;;;;5031594;28;20205;-63
2021/01/20 02:02:19;;;;;;;0.60;0.60;;;;;;;;;;5031668;28;20214;-64
2021/01/20 02:04:45;;;;;;;0.50;0.50;;;;;;;;;;5031601;28;20279;-63
2021/01/20 02:07:11;;;;;;;0.60;0.60;;;;;;;;;;5031266;28;20806;-64
2021/01/20 02:09:38;;;;;;;0.60;0.60;;;;;;;;;;5031365;28;20437;-64
2021/01/20 02:12:19;;;;;;;1.35;0.77;;;;;;;;;;5030836;28;20798;-63
2021/01/20 02:14:54;;;;;;;0.50;0.50;;;;;;;;;;5031318;28;20292;-63
2021/01/20 02:17:33;;;;;;;0.82;0.82;;;;;;;;;;5031250;28;20227;-64
2021/01/20 02:20:16;;;;;;;1.13;1.13;;;;;;;;;;5031069;28;20174;-63
2021/01/20 02:22:43;;;;;;;0.60;0.60;;;;;;;;;;5031351;28;20255;-63
2021/01/20 02:25:22;;;;;;;0.50;0.50;;;;;;;;;;5031372;28;20173;-63
2021/01/20 02:27:56;;;;;;;0.60;0.60;;;;;;;;;;5031357;28;20176;-64
2021/01/20 02:30:24;;;;;;;0.50;0.50;;;;;;;;;;5031179;28;20223;-64
2021/01/20 02:32:51;;;;;;;0.60;0.60;;;;;;;;;;5031159;28;20689;-63
2021/01/20 02:35:17;;;;;;;0.60;0.60;;;;;;;;;;5031261;28;20247;-63
2021/01/20 02:37:44;;;;;;;0.50;0.50;;;;;;;;;;5031259;28;20228;-63
2021/01/20 02:40:11;;;;;;;0.47;0.47;;;;;;;;;;5031025;28;20177;-64
2021/01/20 02:42:44;;;;;;;0.70;0.70;;;;;;;;;;5031257;28;20263;-64
2021/01/20 02:45:11;;;;;;;0.40;0.40;;;;;;;;;;5031232;28;20202;-64
2021/01/20 02:47:37;;;;;;;0.60;0.60;;;;;;;;;;5030960;28;20262;-64
2021/01/20 02:50:05;;;;;;;0.50;0.50;;;;;;;;;;5030974;28;20263;-63
2021/01/20 02:52:34;;;;;;;0.50;0.50;;;;;;;;;;5031197;28;20213;-63
2021/01/20 02:55:02;;;;;;;0.73;0.73;;;;;;;;;;5030983;28;20564;-63
2021/01/20 02:57:29;;;;;;;0.60;0.60;;;;;;;;;;5031152;28;20660;-63
2021/01/20 02:59:57;;;;;;;0.40;0.40;;;;;;;;;;5030881;28;20168;-63
2021/01/20 03:02:24;;;;;;;0.50;0.50;;;;;;;;;;5030986;28;20166;-63
2021/01/20 03:04:50;;;;;;;0.50;0.50;;;;;;;;;;5031044;28;20240;-64
2021/01/20 03:07:18;;;;;;;0.50;0.50;;;;;;;;;;5030974;28;20641;-63
2021/01/20 03:09:44;;;;;;;1.15;1.15;;;;;;;;;;5030866;28;20668;-63
2021/01/20 03:12:10;;;;;;;0.50;0.50;;;;;;;;;;5030552;28;20173;-64
2021/01/20 03:14:37;;;;;;;0.70;0.70;;;;;;;;;;5031024;28;20211;-63
2021/01/20 03:17:03;;;;;;;0.50;0.50;;;;;;;;;;5030969;28;20260;-63
2021/01/20 03:19:29;;;;;;;0.70;0.70;;;;;;;;;;5033335;28;20205;-63
2021/01/20 03:21:55;;;;;;;0.60;0.60;;;;;;;;;;5034447;28;20207;-63
2021/01/20 03:24:21;;;;;;;0.60;0.60;;;;;;;;;;5034365;28;20437;-63
2021/01/20 03:26:47;;;;;;;0.73;0.63;;;;;;;;;;5034428;28;20406;-64
2021/01/20 03:29:13;;;;;;;0.40;0.40;;;;;;;;;;5034124;28;20814;-64
2021/01/20 03:31:39;;;;;;;0.50;0.50;;;;;;;;;;5034282;28;20399;-63
2021/01/20 03:34:05;;;;;;;0.90;0.90;;;;;;;;;;5034225;28;20514;-63
2021/01/20 03:36:31;;;;;;;0.40;0.40;;;;;;;;;;5034051;28;20459;-63
2021/01/20 03:38:57;;;;;;;1.08;0.80;;;;;;;;;;5033951;28;20487;-63
2021/01/20 03:41:23;;;;;;;0.50;0.50;;;;;;;;;;5034151;28;20253;-62
2021/01/20 03:43:49;;;;;;;0.68;0.68;;;;;;;;;;5034157;28;20620;-63
2021/01/20 03:46:15;;;;;;;0.98;0.95;;;;;;;;;;5033967;28;20201;-64
2021/01/20 03:48:41;;;;;;;0.50;0.50;;;;;;;;;;5033978;28;20214;-64
2021/01/20 03:51:07;;;;;;;0.40;0.40;;;;;;;;;;5033684;28;21016;-64
2021/01/20 03:53:33;;;;;;;0.63;0.63;;;;;;;;;;5069038;22;20220;-65
2021/01/20 03:55:59;;;;;;;0.63;0.63;;;;;;;;;;5073258;28;20223;-64
2021/01/20 03:58:25;;;;;;;0.80;0.80;;;;;;;;;;5073413;28;20414;-65
2021/01/20 04:00:52;;;;;;;0.80;0.80;;;;;;;;;;5073435;28;20176;-64
2021/01/20 04:03:18;;;;;;;0.70;0.70;;;;;;;;;;5074010;28;20554;-65
2021/01/20 04:05:44;;;;;;;0.60;0.60;;;;;;;;;;5073687;28;20181;-65
2021/01/20 04:08:10;;;;;;;0.73;0.73;;;;;;;;;;5073472;28;20947;-65
2021/01/20 04:10:36;;;;;;;0.50;0.50;;;;;;;;;;5073278;28;20180;-65
2021/01/20 04:13:02;;;;;;;0.50;0.50;;;;;;;;;;5073528;28;20179;-65
2021/01/20 04:15:28;;;;;;;2.70;2.45;;;;;;;;;;5073269;28;20208;-64
2021/01/20 04:17:54;;;;;;;0.70;0.70;;;;;;;;;;5073436;28;20164;-65
2021/01/20 04:20:20;;;;;;;0.50;0.50;;;;;;;;;;5073094;28;20406;-65
2021/01/20 04:22:46;;;;;;;0.95;0.95;;;;;;;;;;5073199;28;20172;-65
2021/01/20 04:25:12;;;;;;;0.50;0.50;;;;;;;;;;5073089;28;20707;-64
2021/01/20 04:27:38;;;;;;;0.50;0.50;;;;;;;;;;5073378;28;20213;-65
2021/01/20 04:30:06;;;;;;;0.50;0.50;;;;;;;;;;5072935;28;20176;-65
2021/01/20 04:32:32;;;;;;;0.60;0.60;;;;;;;;;;5073119;28;20176;-65
2021/01/20 04:34:58;;;;;;;1.45;1.20;;;;;;;;;;5072795;28;20200;-65
2021/01/20 04:37:24;;;;;;;0.87;0.87;;;;;;;;;;5072914;28;20169;-65
2021/01/20 04:39:50;;;;;;;0.70;0.70;;;;;;;;;;5072730;28;20548;-65
2021/01/20 04:42:16;;;;;;;1.50;1.40;;;;;;;;;;5072915;28;20412;-65
2021/01/20 04:44:42;;;;;;;0.73;0.73;;;;;;;;;;5072706;28;20799;-65
2021/01/20 04:47:08;;;;;;;0.40;0.40;;;;;;;;;;5072769;28;20932;-64
2021/01/20 04:49:35;;;;;;;0.50;0.50;;;;;;;;;;5072518;28;20547;-65
2021/01/20 04:52:02;;;;;;;1.05;1.05;;;;;;;;;;5072698;28;20202;-65
2021/01/20 04:54:28;;;;;;;0.50;0.50;;;;;;;;;;5072339;28;20219;-64
2021/01/20 04:56:55;;;;;;;0.50;0.50;;;;;;;;;;5072539;28;20197;-64
2021/01/20 04:59:21;;;;;;;0.50;0.50;;;;;;;;;;5072186;28;20255;-64
2021/01/20 05:01:50;;;;;;;0.70;0.70;;;;;;;;;;5072444;28;20198;-64
2021/01/20 05:04:16;;;;;;;0.50;0.50;;;;;;;;;;5072229;28;20246;-64
2021/01/20 05:06:45;;;;;;;0.60;0.60;;;;;;;;;;5072347;28;20213;-65
2021/01/20 05:09:11;;;;;;;0.90;0.77;;;;;;;;;;5072091;28;20208;-64
2021/01/20 05:11:41;;;;;;;0.50;0.50;;;;;;;;;;5072367;28;20238;-63
2021/01/20 05:14:13;;;;;;;0.50;0.50;;;;;;;;;;5072106;28;20198;-64
2021/01/20 05:16:40;;;;;;;0.60;0.60;;;;;;;;;;5072017;28;20207;-62
2021/01/20 05:19:06;;;;;;;0.63;0.63;;;;;;;;;;5071954;28;20204;-64
2021/01/20 05:21:32;;;;;;;0.60;0.60;;;;;;;;;;5072233;28;20184;-64
2021/01/20 05:24:17;;;;;;;0.60;0.60;;;;;;;;;;5072016;28;20189;-65
2021/01/20 05:26:43;;;;;;;0.60;0.60;;;;;;;;;;5072073;28;20258;-65
2021/01/20 05:29:10;;;;;;;0.57;0.57;;;;;;;;;;5071724;28;20173;-63
2021/01/20 05:31:36;;;;;;;0.50;0.50;;;;;;;;;;5071941;28;20526;-65
2021/01/20 05:34:02;;;;;;;0.60;0.60;;;;;;;;;;5071903;28;20877;-64
2021/01/20 05:36:28;;;;;;;0.88;0.88;;;;;;;;;;5071859;28;20291;-65
2021/01/20 05:38:54;;;;;;;0.50;0.50;;;;;;;;;;5071635;28;20196;-65
2021/01/20 05:41:24;;;;;;;0.70;0.70;;;;;;;;;;5071389;28;20178;-64
2021/01/20 05:43:56;;;;;;;1.50;0.93;;;;;;;;;;5071616;28;20220;-64
2021/01/20 05:46:35;;;;;;;0.75;0.75;;;;;;;;;;5071736;28;20202;-63
2021/01/20 05:49:02;;;;;;;0.63;0.63;;;;;;;;;;5071584;28;20182;-64
2021/01/20 05:51:41;;;;;;;1.60;0.73;;;;;;;;;;5071940;28;20671;-65
2021/01/20 05:54:08;;;;;;;0.70;0.70;;;;;;;;;;5071449;28;20217;-64
2021/01/20 05:56:34;;;;;;;1.00;1.00;;;;;;;;;;5071581;28;20205;-65
2021/01/20 05:59:00;;;;;;;0.55;0.55;;;;;;;;;;5071338;28;20196;-65
2021/01/20 06:01:26;;;;;;;0.50;0.50;;;;;;;;;;5068807;28;20180;-64
2021/01/20 06:03:53;;;;;;;0.45;0.45;;;;;;;;;;5071034;28;20202;-65
2021/01/20 06:06:19;;;;;;;0.50;0.50;;;;;;;;;;5052421;28;20187;-65
2021/01/20 06:08:45;;;;;;;0.93;0.93;;;;;;;;;;5050882;28;20675;-65
2021/01/20 06:11:13;;;;;;;0.70;0.70;;;;;;;;;;5051348;28;20208;-65
2021/01/20 06:13:39;;;;;;;0.40;0.40;;;;;;;;;;5051383;28;20214;-65
2021/01/20 06:16:14;;;;;;;0.80;0.80;;;;;;;;;;5051381;28;20204;-65
2021/01/20 06:18:45;;;;;;;0.60;0.60;;;;;;;;;;5051397;28;20176;-64
2021/01/20 06:21:12;;;;;;;0.90;0.90;;;;;;;;;;5051428;28;20568;-65
2021/01/20 06:23:38;;;;;;;0.50;0.50;;;;;;;;;;5055638;28;20189;-64
2021/01/20 06:26:12;;;;;;;0.50;0.50;;;;;;;;;;5070481;28;20183;-64
2021/01/20 06:28:40;;;;;;;0.60;0.60;;;;;;;;;;5071793;28;20211;-65
2021/01/20 06:31:07;;;;;;;0.60;0.60;;;;;;;;;;5071784;28;20199;-67
2021/01/20 06:33:33;;;;;;;1.45;1.35;;;;;;;;;;5071335;28;20558;-64
2021/01/20 06:35:59;;;;;;;1.88;0.80;;;;;;;;;;5071124;28;20206;-65
2021/01/20 06:38:25;;;;;;;0.80;0.80;;;;;;;;;;5071307;28;20647;-65
2021/01/20 06:40:51;;;;;;;0.63;0.63;;;;;;;;;;5071176;28;20165;-66
2021/01/20 06:43:33;;;;;;;0.70;0.70;;;;;;;;;;5071257;28;20419;-66
2021/01/20 06:46:12;;;;;;;0.45;0.45;;;;;;;;;;5071287;28;20180;-66
2021/01/20 06:48:54;;;;;;;0.50;0.50;;;;;;;;;;5071142;28;20180;-66
2021/01/20 06:51:20;;;;;;;0.70;0.70;;;;;;;;;;5066644;28;20196;-66
2021/01/20 06:54:06;;;;;;;0.50;0.50;;;;;;;;;;5063371;28;20195;-63
2021/01/20 06:56:32;;;;;;;0.60;0.60;;;;;;;;;;5056132;28;20216;-66
2021/01/20 06:59:17;;;;;;;0.50;0.50;;;;;;;;;;5059408;28;20174;-66
2021/01/20 07:02:09;;;;;;;0.50;0.50;;;;;;;;;;5074768;28;20401;-65
2021/01/20 07:04:38;;;;;;;0.60;0.60;;;;;;;;;;5069954;28;20286;-65
2021/01/20 07:07:11;;;;;;;0.73;0.73;;;;;;;;;;5079600;28;20185;-65
2021/01/20 07:09:49;;;;;;;0.50;0.50;;;;;;;;;;5094703;28;20173;-65
2021/01/20 07:12:21;;;;;;;0.60;0.60;;;;;;;;;;5094763;28;20172;-65
2021/01/20 07:14:47;;;;;;;0.70;0.70;;;;;;;;;;5077225;28;20288;-65
2021/01/20 07:17:14;;;;;;;1.67;1.10;;;;;;;;;;5068371;28;20208;-65
2021/01/20 07:19:40;;;;;;;0.80;0.80;;;;;;;;;;5054165;28;20168;-66
2021/01/20 07:22:06;;;;;;;0.60;0.60;;;;;;;;;;5056614;28;20179;-65
2021/01/20 07:24:32;;;;;;;0.50;0.50;;;;;;;;;;5063225;28;20224;-65
2021/01/20 07:27:06;;;;;;;0.50;0.50;;;;;;;;;;5055207;28;20190;-65
2021/01/20 07:29:32;;;;;;;0.40;0.40;;;;;;;;;;5054988;28;20553;-65
2021/01/20 07:31:59;;;;;;;0.50;0.50;;;;;;;;;;5069628;28;20883;-65
2021/01/20 07:34:45;;;;;;;0.40;0.40;;;;;;;;;;5062477;28;20229;-66
2021/01/20 07:37:13;;;;;;;2.15;0.80;;;;;;;;;;5074364;28;20177;-64
2021/01/20 07:39:39;;;;;;;0.77;0.75;;;;;;;;;;5062342;28;20205;-66
2021/01/20 07:42:06;;;;;;;0.40;0.40;;;;;;;;;;5055040;28;20176;-66
2021/01/20 07:44:32;;;;;;;0.60;0.60;;;;;;;;;;5072965;28;20765;-65
2021/01/20 07:46:59;;;;;;;0.85;0.85;;;;;;;;;;5072046;28;20199;-65
2021/01/20 07:49:25;;;;;;;0.55;0.55;;;;;;;;;;5073952;28;20268;-65
2021/01/20 07:52:01;;;;;;;0.50;0.50;;;;;;;;;;5074067;28;20172;-65
2021/01/20 07:54:34;;;;;;;0.50;0.50;;;;;;;;;;5073891;28;20207;-65
2021/01/20 07:57:00;;;;;;;0.60;0.60;;;;;;;;;;5073491;28;20217;-66
2021/01/20 07:59:26;;;;;;;0.50;0.50;;;;;;;;;;5073669;28;20184;-64
2021/01/20 08:01:52;;;;;;;0.40;0.40;;;;;;;;;;5073894;28;20172;-66
2021/01/20 08:04:19;;;;;;;1.00;1.00;;;;;;;;;;5073428;28;20191;-66
2021/01/20 08:06:45;;;;;;;0.57;0.57;;;;;;;;;;5073594;28;20407;-63
2021/01/20 08:09:11;;;;;;;0.95;0.95;;;;;;;;;;5072721;28;20234;-64
2021/01/20 08:11:37;;;;;;;0.50;0.50;;;;;;;;;;5073663;28;20693;-64
2021/01/20 08:14:04;;;;;;;1.35;1.35;;;;;;;;;;5073455;28;20200;-64
2021/01/20 08:16:33;;;;;;;0.55;0.55;;;;;;;;;;5073272;28;20205;-64
2021/01/20 08:18:59;;;;;;;0.52;0.52;;;;;;;;;;5073179;28;20268;-64
2021/01/20 08:21:25;;;;;;;0.60;0.60;;;;;;;;;;5072834;28;20182;-64
2021/01/20 08:23:54;;;;;;;2.55;2.35;;;;;;;;;;5071596;28;20283;-65
2021/01/20 08:26:31;;;;;;;0.60;0.60;;;;;;;;;;5072976;28;20653;-64
2021/01/20 08:29:03;;;;;;;0.43;0.43;;;;;;;;;;5072440;28;20177;-65
2021/01/20 08:31:29;;;;;;;0.82;0.82;;;;;;;;;;5072550;28;20215;-65
2021/01/20 08:34:13;;;;;;;0.70;0.70;;;;;;;;;;5073127;28;20189;-65
2021/01/20 08:36:39;;;;;;;0.50;0.50;;;;;;;;;;5072941;28;20241;-65
2021/01/20 08:39:09;;;;;;;0.60;0.60;;;;;;;;;;5073127;28;20240;-65
2021/01/20 08:41:35;;;;;;;0.65;0.65;;;;;;;;;;5073002;28;20643;-65
2021/01/20 08:44:14;;;;;;;1.15;1.15;;;;;;;;;;5073458;28;20291;-65
2021/01/20 08:46:40;;;;;;;0.80;0.80;;;;;;;;;;5072961;28;20190;-65
2021/01/20 08:49:07;;;;;;;0.57;0.57;;;;;;;;;;5072483;28;20173;-65
2021/01/20 08:51:33;;;;;;;0.50;0.50;;;;;;;;;;5072892;28;20188;-65
2021/01/20 08:54:12;;;;;;;0.60;0.60;;;;;;;;;;5072281;28;20203;-65
2021/01/20 08:56:38;;;;;;;0.50;0.50;;;;;;;;;;5072307;28;20238;-65
2021/01/20 08:59:04;;;;;;;0.50;0.50;;;;;;;;;;5072028;28;20172;-65
2021/01/20 09:01:30;;;;;;;0.80;0.80;;;;;;;;;;5071966;28;20175;-65
2021/01/20 09:04:01;;;;;;;0.73;0.73;;;;;;;;;;5071831;28;20962;-66
2021/01/20 09:06:27;;;;;;;1.17;1.17;;;;;;;;;;5072187;28;20188;-66
2021/01/20 09:08:56;;;;;;;0.60;0.60;;;;;;;;;;5071872;28;20660;-65
2021/01/20 09:11:22;;;;;;;0.90;0.90;;;;;;;;;;5070903;28;20193;-65
2021/01/20 09:13:50;;;;;;;1.20;0.93;;;;;;;;;;5071997;28;20622;-65
2021/01/20 09:16:16;;;;;;;0.90;0.90;;;;;;;;;;5070630;28;20191;-66
2021/01/20 09:18:42;;;;;;;0.60;0.60;;;;;;;;;;5071844;28;20187;-66
2021/01/20 09:21:09;;;;;;;1.00;1.00;;;;;;;;;;5071798;28;20214;-66
2021/01/20 09:23:35;;;;;;;0.70;0.70;;;;;;;;;;5071736;28;20189;-66
2021/01/20 09:26:01;;;;;;;0.60;0.60;;;;;;;;;;5071906;28;20177;-65
2021/01/20 09:28:27;;;;;;;0.50;0.50;;;;;;;;;;5071653;28;20260;-65
2021/01/20 09:30:53;;;;;;;0.65;0.65;;;;;;;;;;5071806;28;20718;-65
2021/01/20 09:33:19;;;;;;;0.60;0.60;;;;;;;;;;5071524;28;20678;-65
2021/01/20 09:35:46;;;;;;;0.50;0.50;;;;;;;;;;5071713;28;20207;-65
2021/01/20 09:38:12;;;;;;;1.05;1.05;;;;;;;;;;5071579;28;20181;-65
2021/01/20 09:40:38;;;;;;;0.50;0.50;;;;;;;;;;5070403;28;20176;-65
2021/01/20 09:43:04;;;;;;;1.10;1.10;;;;;;;;;;5071601;28;20168;-65
2021/01/20 09:45:31;;;;;;;0.60;0.60;;;;;;;;;;5071588;28;20199;-65
2021/01/20 09:47:59;;;;;;;0.40;0.40;;;;;;;;;;5070754;28;20216;-65
2021/01/20 09:50:25;;;;;;;0.82;0.82;;;;;;;;;;5070028;28;20185;-64
2021/01/20 09:52:54;;;;;;;0.70;0.70;;;;;;;;;;5071153;28;20254;-65
2021/01/20 09:55:21;;;;;;;0.77;0.77;;;;;;;;;;5071904;28;20219;-65
2021/01/20 09:57:47;;;;;;;0.90;0.88;;;;;;;;;;5071072;28;20608;-65
2021/01/20 10:00:13;;;;;;;0.97;0.97;;;;;;;;;;5070604;28;20213;-63
2021/01/20 10:02:40;;;;;;;0.50;0.50;;;;;;;;;;5071222;28;20403;-64
2021/01/20 10:05:07;;;;;;;0.70;0.63;;;;;;;;;;5070685;28;20580;-65
2021/01/20 10:07:33;;;;;;;0.70;0.70;;;;;;;;;;5071051;28;20198;-65
2021/01/20 10:10:00;;;;;;;0.93;0.93;;;;;;;;;;5071107;28;20177;-65
2021/01/20 10:12:26;;;;;;;0.70;0.70;;;;;;;;;;5070784;28;20168;-65
2021/01/20 10:14:52;;;;;;;1.40;0.90;;;;;;;;;;5070920;28;20683;-65
2021/01/20 10:17:18;;;;;;;0.60;0.60;;;;;;;;;;5069857;28;20216;-65
2021/01/20 10:19:44;;;;;;;0.60;0.60;;;;;;;;;;5071285;28;20188;-65
2021/01/20 10:22:10;;;;;;;0.60;0.60;;;;;;;;;;5070749;28;20629;-65
2021/01/20 10:24:36;;;;;;;0.87;0.70;;;;;;;;;;5070974;28;20196;-65
2021/01/20 10:27:02;;;;;;;0.60;0.60;;;;;;;;;;5071642;28;20454;-65
2021/01/20 10:29:28;;;;;;;0.70;0.70;;;;;;;;;;5074615;28;20166;-63
2021/01/20 10:31:55;;;;;;;0.70;0.70;;;;;;;;;;5075001;28;20587;-65
2021/01/20 10:34:21;;;;;;;0.50;0.50;;;;;;;;;;5074273;28;20661;-65
2021/01/20 10:36:47;;;;;;;1.92;0.85;;;;;;;;;;5074317;28;20213;-66
2021/01/20 10:39:13;;;;;;;0.70;0.70;;;;;;;;;;5074918;28;20227;-64
2021/01/20 10:41:40;;;;;;;0.50;0.50;;;;;;;;;;5074851;28;20172;-64
2021/01/20 10:44:06;;;;;;;0.70;0.70;;;;;;;;;;5074607;28;20685;-66
2021/01/20 10:46:32;;;;;;;1.10;1.00;;;;;;;;;;5074472;28;20176;-64
2021/01/20 10:49:00;;;;;;;0.40;0.40;;;;;;;;;;5074342;28;20189;-66
2021/01/20 10:51:34;;;;;;;0.50;0.50;;;;;;;;;;5074496;28;20659;-65
2021/01/20 10:54:00;;;;;;;0.50;0.50;;;;;;;;;;5074514;28;20718;-66
2021/01/20 10:56:26;;;;;;;0.52;0.52;;;;;;;;;;5073911;28;20248;-66
2021/01/20 10:58:52;;;;;;;1.08;1.08;;;;;;;;;;5074126;28;20222;-66
2021/01/20 11:01:18;;;;;;;0.73;0.73;;;;;;;;;;5074041;28;20166;-65
2021/01/20 11:03:45;;;;;;;0.60;0.60;;;;;;;;;;5073780;28;20419;-65
2021/01/20 11:06:11;;;;;;;0.40;0.40;;;;;;;;;;5073162;28;20408;-65
2021/01/20 11:08:37;;;;;;;0.60;0.60;;;;;;;;;;5073830;28;20182;-65
2021/01/20 11:11:03;;;;;;;0.70;0.70;;;;;;;;;;5074178;28;20178;-65
2021/01/20 11:13:29;;;;;;;0.95;0.95;;;;;;;;;;5074224;28;20713;-65
2021/01/20 11:15:56;;;;;;;0.63;0.63;;;;;;;;;;5071489;28;20213;-65
2021/01/20 11:18:22;;;;;;;0.60;0.60;;;;;;;;;;5072577;28;20647;-65
2021/01/20 11:20:48;;;;;;;1.17;0.73;;;;;;;;;;5073640;28;20235;-65
2021/01/20 11:23:18;;;;;;;0.95;0.75;;;;;;;;;;5073412;28;20184;-65
2021/01/20 11:25:45;;;;;;;0.80;0.65;;;;;;;;;;5073729;28;20173;-65
2021/01/20 11:28:11;;;;;;;0.60;0.60;;;;;;;;;;5073657;28;20645;-65
2021/01/20 11:30:38;;;;;;;1.08;1.08;;;;;;;;;;5073100;28;20185;-65
2021/01/20 11:33:04;;;;;;;1.00;0.90;;;;;;;;;;5072138;28;20177;-66
2021/01/20 11:35:30;;;;;;;1.23;1.10;;;;;;;;;;5073447;28;20206;-65
2021/01/20 11:37:58;;;;;;;1.23;1.23;;;;;;;;;;5073498;28;20236;-65
2021/01/20 11:40:25;;;;;;;2.13;2.03;;;;;;;;;;5071969;28;20774;-65
2021/01/20 11:42:57;;;;;;;2.35;1.35;;;;;;;;;;5072976;28;20175;-65
2021/01/20 11:45:33;;;;;;;0.70;0.70;;;;;;;;;;5072470;28;20196;-65
2021/01/20 11:48:00;;;;;;;4.63;1.65;;;;;;;;;;5073285;28;20180;-65
2021/01/20 11:50:26;;;;;;;1.52;1.00;;;;;;;;;;5073205;28;20188;-65
2021/01/20 11:52:53;;;;;;;0.60;0.60;;;;;;;;;;5072951;28;20175;-65
2021/01/20 11:55:19;;;;;;;0.50;0.50;;;;;;;;;;5072823;28;20312;-65
2021/01/20 11:57:45;;;;;;;0.95;0.95;;;;;;;;;;5073166;28;20205;-65
2021/01/20 12:00:11;;;;;;;1.10;1.10;;;;;;;;;;5072124;28;20227;-65
2021/01/20 12:02:38;;;;;;;1.10;1.00;;;;;;;;;;5073058;28;20171;-65
2021/01/20 12:05:05;;;;;;;0.95;0.95;;;;;;;;;;5073016;28;20187;-65
2021/01/20 12:07:32;;;;;;;0.88;0.88;;;;;;;;;;5071996;28;20171;-65
2021/01/20 12:09:58;;;;;;;0.70;0.70;;;;;;;;;;5071711;28;20699;-65
2021/01/20 12:12:24;;;;;;;1.25;1.25;;;;;;;;;;5073272;28;20548;-65
2021/01/20 12:14:50;;;;;;;3.70;1.10;;;;;;;;;;5072121;28;20252;-65
2021/01/20 12:17:16;;;;;;;1.48;1.42;;;;;;;;;;5071764;28;20177;-65
2021/01/20 12:19:42;;;;;;;0.82;0.82;;;;;;;;;;5072677;28;20177;-65
2021/01/20 12:22:08;;;;;;;1.07;0.73;;;;;;;;;;5072972;28;20179;-65
2021/01/20 12:24:34;;;;;;;1.23;1.17;;;;;;;;;;5072754;28;20912;-65
2021/01/20 12:27:00;;;;;;;0.75;0.75;;;;;;;;;;5072525;28;20765;-65
2021/01/20 12:29:27;;;;;;;0.70;0.70;;;;;;;;;;5072706;28;20313;-65
2021/01/20 12:31:53;;;;;;;2.08;1.73;;;;;;;;;;5072715;28;20747;-65
2021/01/20 12:34:19;;;;;;;1.13;1.02;;;;;;;;;;5072543;28;20659;-65
2021/01/20 12:36:46;;;;;;;0.60;0.60;;;;;;;;;;5072097;28;20605;-65
2021/01/20 12:39:12;;;;;;;0.60;0.60;;;;;;;;;;5072345;28;20635;-66
2021/01/20 12:41:38;;;;;;;0.70;0.70;;;;;;;;;;5072642;28;20634;-66
2021/01/20 12:44:05;;;;;;;0.95;0.95;;;;;;;;;;5072456;28;20273;-65
2021/01/20 12:46:31;;;;;;;0.82;0.80;;;;;;;;;;5072242;28;20526;-65
2021/01/20 12:48:57;;;;;;;0.73;0.73;;;;;;;;;;5071589;28;20174;-65
2021/01/20 12:51:23;;;;;;;0.73;0.60;;;;;;;;;;5071143;28;20272;-65
2021/01/20 12:53:49;;;;;;;1.25;1.25;;;;;;;;;;5072309;28;20958;-65
2021/01/20 12:56:15;;;;;;;2.10;1.40;;;;;;;;;;5072078;28;20209;-65
2021/01/20 12:58:41;;;;;;;1.75;1.65;;;;;;;;;;5071720;28;20396;-65
2021/01/20 13:01:07;;;;;;;0.70;0.70;;;;;;;;;;5071925;28;20171;-65
2021/01/20 13:03:33;;;;;;;1.23;1.23;;;;;;;;;;5071868;28;20425;-65
2021/01/20 13:05:59;;;;;;;1.10;1.02;;;;;;;;;;5072058;28;20962;-65
2021/01/20 13:08:25;;;;;;;1.30;1.20;;;;;;;;;;5070524;28;20179;-65
2021/01/20 13:10:52;;;;;;;1.33;1.23;;;;;;;;;;5071500;28;20174;-65
2021/01/20 13:13:18;;;;;;;0.75;0.75;;;;;;;;;;5070698;28;20555;-65
2021/01/20 13:15:47;;;;;;;2.10;1.50;;;;;;;;;;5071861;28;20219;-65
2021/01/20 13:18:13;;;;;;;0.70;0.70;;;;;;;;;;5071487;28;20179;-65
2021/01/20 13:20:39;;;;;;;0.73;0.73;;;;;;;;;;5071363;28;20170;-66
2021/01/20 13:23:05;;;;;;;1.70;0.93;;;;;;;;;;5071347;28;20178;-66
2021/01/20 13:25:31;;;;;;;5.43;1.17;;;;;;;;;;5071712;28;20426;-65
2021/01/20 13:27:57;;;;;;;1.60;1.50;;;;;;;;;;5071800;28;20406;-65
2021/01/20 13:30:23;;;;;;;1.55;1.45;;;;;;;;;;5071501;28;20172;-64
2021/01/20 13:32:49;;;;;;;1.50;1.35;;;;;;;;;;5068752;28;20604;-64
2021/01/20 13:35:15;;;;;;;0.90;0.90;;;;;;;;;;5071218;28;20622;-64
2021/01/20 13:37:42;;;;;;;1.45;1.30;;;;;;;;;;5071387;28;20178;-64
2021/01/20 13:40:08;;;;;;;0.50;0.50;;;;;;;;;;5071018;28;20250;-64
2021/01/20 13:42:34;;;;;;;1.77;1.30;;;;;;;;;;5070003;28;20226;-64
2021/01/20 13:45:00;;;;;;;1.03;0.93;;;;;;;;;;5070918;28;20664;-65
2021/01/20 13:47:26;;;;;;;0.82;0.82;;;;;;;;;;5071422;28;20409;-65
2021/01/20 13:49:52;;;;;;;0.60;0.60;;;;;;;;;;5070761;28;20207;-65
2021/01/20 13:52:18;;;;;;;0.70;0.70;;;;;;;;;;5071267;28;20248;-66
2021/01/20 13:54:44;;;;;;;1.20;1.10;;;;;;;;;;5070625;28;20680;-65
2021/01/20 13:57:11;;;;;;;0.85;0.85;;;;;;;;;;5071282;28;20406;-64
2021/01/20 13:59:37;;;;;;;1.17;1.17;;;;;;;;;;5069730;28;20244;-65
2021/01/20 14:02:04;;;;;;;1.73;1.55;;;;;;;;;;5070800;28;20262;-65
2021/01/20 14:04:30;;;;;;;0.80;0.80;;;;;;;;;;5071134;28;20201;-65
2021/01/20 14:06:56;;;;;;;0.90;0.90;;;;;;;;;;5071035;28;20175;-65
2021/01/20 14:09:22;;;;;;;0.70;0.70;;;;;;;;;;5070989;28;20171;-65
2021/01/20 14:11:48;;;;;;;0.83;0.83;;;;;;;;;;5071036;28;20412;-64
2021/01/20 14:14:14;;;;;;;1.40;1.35;;;;;;;;;;5071110;28;20812;-64
2021/01/20 14:16:40;;;;;;;0.85;0.77;;;;;;;;;;5070751;28;20206;-66
2021/01/20 14:19:06;;;;;;;2.00;1.88;;;;;;;;;;5070544;28;20163;-64
2021/01/20 14:21:32;;;;;;;0.73;0.73;;;;;;;;;;5071091;28;20549;-65
2021/01/20 14:23:59;;;;;;;0.52;0.52;;;;;;;;;;5070862;28;20842;-65
2021/01/20 14:26:25;;;;;;;1.00;1.00;;;;;;;;;;5071027;28;20235;-65
2021/01/20 14:28:51;;;;;;;0.93;0.93;;;;;;;;;;5070277;28;20174;-66
2021/01/20 14:31:21;;;;;;;1.20;1.20;;;;;;;;;;5071142;28;20646;-64
2021/01/20 14:33:47;;;;;;;0.90;0.90;;;;;;;;;;5070601;28;20425;-65
2021/01/20 14:36:14;;;;;;;1.42;1.42;;;;;;;;;;5070513;28;20681;-64
2021/01/20 14:38:40;;;;;;;0.75;0.75;;;;;;;;;;5070588;28;20416;-65
2021/01/20 14:41:06;;;;;;;1.00;1.00;;;;;;;;;;5070330;28;20658;-65
2021/01/20 14:43:32;;;;;;;1.38;0.70;;;;;;;;;;5069785;28;20198;-64